Time;durP1;ratioP1;P1;durP2;ratioP2;P2;SDS_P1;SDS_P2;PMS_P1;PMS_P2;Temp;Humidity;BMP_temperature;BMP_pressure;BME280_temperature;BME280_humidity;BME280_pressure;Samples;Min_cycle;Max_cycle;Signal;HPM_P1;HPM_P2
2022/04/12 00:01:09;;;;;;;;;;;19.80;99.90;;;;;;4869038;29;19916;-75
2022/04/12 00:03:35;;;;;;;;;;;19.80;99.90;;;;;;4862665;29;19952;-74
2022/04/12 00:06:02;;;;;;;;;;;19.80;99.90;;;;;;4862888;29;19919;-75
2022/04/12 00:08:29;;;;;;;;;;;19.80;99.90;;;;;;4870881;29;19939;-74
2022/04/12 00:10:55;;;;;;;;;;;19.60;99.90;;;;;;4882273;29;19912;-74
2022/04/12 00:13:22;;;;;;;;;;;19.60;99.90;;;;;;4882138;29;20011;-74
2022/04/12 00:15:49;;;;;;;;;;;19.60;99.90;;;;;;4881933;29;19912;-75
2022/04/12 00:21:00;;;;;;;;;;;19.70;99.90;;;;;;4882498;29;19919;-75
2022/04/12 00:23:27;;;;;;;;;;;19.80;99.90;;;;;;4881880;29;19959;-75
2022/04/12 00:25:53;;;;;;;;;;;19.80;99.90;;;;;;4881702;29;19912;-75
2022/04/12 00:28:21;;;;;;;;;;;19.80;99.90;;;;;;4881840;29;19935;-74
2022/04/12 00:30:48;;;;;;;;;;;19.80;99.90;;;;;;4881849;29;20006;-75
2022/04/12 00:33:15;;;;;;;;;;;19.90;99.90;;;;;;4881759;29;19911;-74
2022/04/12 00:35:41;;;;;;;;;;;19.90;99.90;;;;;;4881517;29;19915;-75
2022/04/12 00:38:23;;;;;;;;;;;19.90;99.90;;;;;;4881736;29;19920;-75
2022/04/12 00:40:51;;;;;;;;;;;19.90;99.90;;;;;;4881633;29;19911;-75
2022/04/12 00:43:18;;;;;;;;;;;20.00;99.90;;;;;;4881608;29;19962;-75
2022/04/12 00:45:46;;;;;;;;;;;20.10;99.90;;;;;;4881700;29;19977;-75
2022/04/12 00:48:13;;;;;;;;;;;20.30;99.90;;;;;;4881502;29;20371;-74
2022/04/12 00:50:41;;;;;;;;;;;20.40;99.90;;;;;;4881456;29;19968;-75
2022/04/12 00:53:08;;;;;;;;;;;20.40;99.90;;;;;;4880986;29;19958;-75
2022/04/12 00:55:35;;;;;;;;;;;20.40;99.90;;;;;;4881249;29;19918;-75
2022/04/12 00:58:07;;;;;;;;;;;20.50;99.90;;;;;;4881400;29;19915;-75
2022/04/12 01:00:34;;;;;;;;;;;20.40;99.90;;;;;;4881461;29;19954;-75
2022/04/12 01:03:01;;;;;;;;;;;20.40;99.90;;;;;;4881026;29;20370;-75
2022/04/12 01:05:28;;;;;;;;;;;20.40;99.90;;;;;;4881206;29;20336;-75
2022/04/12 01:07:55;;;;;;;;;;;20.40;99.90;;;;;;4879975;29;19912;-75
2022/04/12 01:10:25;;;;;;;;;;;20.50;99.90;;;;;;4881051;29;19975;-75
2022/04/12 01:12:52;;;;;;;;;;;20.50;99.90;;;;;;4881046;29;20283;-75
2022/04/12 01:15:20;;;;;;;;;;;20.50;99.90;;;;;;4881053;29;19918;-74
2022/04/12 01:17:47;;;;;;;;;;;20.60;99.90;;;;;;4880775;29;20356;-75
2022/04/12 01:20:17;;;;;;;;;;;20.70;99.90;;;;;;4881194;29;19971;-74
2022/04/12 01:23:09;;;;;;;;;;;20.70;99.90;;;;;;4881128;29;19999;-75
2022/04/12 01:25:39;;;;;;;;;;;20.80;99.90;;;;;;4878746;29;20316;-74
2022/04/12 01:28:07;;;;;;;;;;;20.80;99.90;;;;;;4880886;29;20420;-75
2022/04/12 01:30:33;;;;;;;;;;;20.80;99.90;;;;;;4880754;29;19912;-74
2022/04/12 01:33:00;;;;;;;;;;;20.70;99.90;;;;;;4880668;29;20418;-74
2022/04/12 01:35:27;;;;;;;;;;;20.60;99.90;;;;;;4880611;29;19912;-74
2022/04/12 01:37:54;;;;;;;;;;;20.40;99.90;;;;;;4879269;29;20348;-74
2022/04/12 01:40:20;;;;;;;;;;;20.40;99.90;;;;;;4880574;29;19915;-74
2022/04/12 01:42:47;;;;;;;;;;;20.30;99.90;;;;;;4877681;29;19916;-74
2022/04/12 01:45:14;;;;;;;;;;;20.40;99.90;;;;;;4848198;29;19912;-74
2022/04/12 01:47:40;;;;;;;;;;;20.40;99.90;;;;;;4860981;29;20002;-74
2022/04/12 01:50:07;;;;;;;;;;;20.50;99.90;;;;;;4879699;29;19980;-74
2022/04/12 01:52:34;;;;;;;;;;;20.50;99.90;;;;;;4880441;29;19912;-75
2022/04/12 01:55:02;;;;;;;;;;;20.60;99.90;;;;;;4880220;29;19916;-74
2022/04/12 01:57:29;;;;;;;;;;;20.80;99.90;;;;;;4880470;29;19912;-74
2022/04/12 01:59:59;;;;;;;;;;;20.90;99.90;;;;;;4880318;29;19916;-74
2022/04/12 02:02:25;;;;;;;;;;;21.00;99.90;;;;;;4879898;29;19974;-74
2022/04/12 02:04:52;;;;;;;;;;;20.90;99.90;;;;;;4879612;29;19912;-74
2022/04/12 02:07:19;;;;;;;;;;;20.90;99.90;;;;;;4880125;29;19911;-74
2022/04/12 02:09:47;;;;;;;;;;;20.80;99.90;;;;;;4879803;29;19912;-74
2022/04/12 02:12:18;;;;;;;;;;;20.60;99.90;;;;;;4879148;29;20205;-74
2022/04/12 02:14:45;;;;;;;;;;;20.50;99.90;;;;;;4879648;29;19999;-73
2022/04/12 02:17:11;;;;;;;;;;;20.60;99.90;;;;;;4879959;29;20283;-74
2022/04/12 02:19:38;;;;;;;;;;;20.80;99.90;;;;;;4879791;29;19952;-75
2022/04/12 02:22:05;;;;;;;;;;;20.90;99.90;;;;;;4879820;29;19912;-74
2022/04/12 02:24:32;;;;;;;;;;;20.80;99.90;;;;;;4879735;29;20375;-74
2022/04/12 02:26:58;;;;;;;;;;;20.80;99.90;;;;;;4879853;29;19931;-74
2022/04/12 02:29:25;;;;;;;;;;;20.90;99.90;;;;;;4879603;29;19912;-74
2022/04/12 02:31:52;;;;;;;;;;;21.00;99.90;;;;;;4879494;29;19963;-75
2022/04/12 02:34:18;;;;;;;;;;;20.90;99.90;;;;;;4879805;29;19919;-74
2022/04/12 02:36:47;;;;;;;;;;;20.90;99.90;;;;;;4879563;29;20388;-74
2022/04/12 02:39:13;;;;;;;;;;;20.70;99.90;;;;;;4879613;29;20022;-74
2022/04/12 02:41:40;;;;;;;;;;;20.70;99.90;;;;;;4879238;29;19912;-74
2022/04/12 02:44:07;;;;;;;;;;;20.80;99.90;;;;;;4879480;29;19922;-74
2022/04/12 02:46:33;;;;;;;;;;;20.90;99.90;;;;;;4879666;29;19912;-74
2022/04/12 02:49:00;;;;;;;;;;;20.90;99.90;;;;;;4879680;29;19959;-74
2022/04/12 02:51:27;;;;;;;;;;;20.90;99.90;;;;;;4879591;29;19912;-74
2022/04/12 02:53:53;;;;;;;;;;;20.90;99.90;;;;;;4879282;29;20332;-74
2022/04/12 02:56:20;;;;;;;;;;;21.00;99.90;;;;;;4879228;29;19912;-74
2022/04/12 02:58:46;;;;;;;;;;;21.00;99.90;;;;;;4879455;29;20007;-74
2022/04/12 03:01:13;;;;;;;;;;;21.20;99.90;;;;;;4879421;29;19912;-74
2022/04/12 03:03:40;;;;;;;;;;;21.20;99.90;;;;;;4879044;29;19939;-74
2022/04/12 03:06:06;;;;;;;;;;;21.40;99.90;;;;;;4879384;29;19915;-74
2022/04/12 03:08:33;;;;;;;;;;;21.50;99.90;;;;;;4879363;29;19911;-74
2022/04/12 03:11:00;;;;;;;;;;;21.50;99.90;;;;;;4878238;29;19912;-74
2022/04/12 03:13:26;;;;;;;;;;;21.40;99.90;;;;;;4869392;29;19923;-74
2022/04/12 03:15:53;;;;;;;;;;;21.20;99.90;;;;;;4878914;29;19960;-74
2022/04/12 03:18:20;;;;;;;;;;;21.10;99.90;;;;;;4882780;29;19927;-74
2022/04/12 03:20:48;;;;;;;;;;;21.00;99.90;;;;;;4882936;29;20012;-74
2022/04/12 03:23:15;;;;;;;;;;;20.90;99.90;;;;;;4882910;29;20372;-74
2022/04/12 03:25:41;;;;;;;;;;;20.80;99.90;;;;;;4882533;29;19916;-74
2022/04/12 03:28:08;;;;;;;;;;;20.90;99.90;;;;;;4866287;29;19912;-74
2022/04/12 03:30:35;;;;;;;;;;;20.90;99.90;;;;;;4882898;29;20006;-75
2022/04/12 03:33:01;;;;;;;;;;;20.90;99.90;;;;;;4882809;29;19995;-74
2022/04/12 03:35:28;;;;;;;;;;;21.10;99.90;;;;;;4882759;29;19912;-74
2022/04/12 03:38:01;;;;;;;;;;;21.30;99.90;;;;;;4882762;29;20394;-74
2022/04/12 03:40:31;;;;;;;;;;;21.40;99.90;;;;;;4882680;29;19916;-74
2022/04/12 03:43:01;;;;;;;;;;;21.40;99.90;;;;;;4882750;29;19999;-74
2022/04/12 03:45:28;;;;;;;;;;;21.30;99.90;;;;;;4882837;29;20418;-75
2022/04/12 03:47:55;;;;;;;;;;;21.10;99.90;;;;;;4882417;29;19919;-74
2022/04/12 03:50:22;;;;;;;;;;;21.10;99.90;;;;;;4882644;29;20454;-74
2022/04/12 03:52:50;;;;;;;;;;;20.90;99.90;;;;;;4882644;29;19918;-74
2022/04/12 03:55:30;;;;;;;;;;;20.90;99.90;;;;;;4882660;29;19950;-74
2022/04/12 03:57:57;;;;;;;;;;;20.90;99.90;;;;;;4882390;29;19920;-74
2022/04/12 04:00:24;;;;;;;;;;;21.00;99.90;;;;;;4882351;29;19959;-74
2022/04/12 04:02:51;;;;;;;;;;;21.00;99.90;;;;;;4882234;29;20371;-74
2022/04/12 04:05:17;;;;;;;;;;;21.10;99.90;;;;;;4882392;29;20003;-74
2022/04/12 04:07:44;;;;;;;;;;;21.10;99.90;;;;;;4882269;29;20344;-74
2022/04/12 04:10:11;;;;;;;;;;;21.00;99.90;;;;;;4882135;29;19970;-74
2022/04/12 04:12:38;;;;;;;;;;;20.90;99.90;;;;;;4882449;29;19934;-74
2022/04/12 04:15:11;;;;;;;;;;;20.90;99.90;;;;;;4882199;29;19912;-74
2022/04/12 04:17:47;;;;;;;;;;;20.70;99.90;;;;;;4881992;29;20359;-75
2022/04/12 04:20:15;;;;;;;;;;;20.70;99.90;;;;;;4882294;29;19939;-74
2022/04/12 04:22:42;;;;;;;;;;;20.60;99.90;;;;;;4881900;29;20283;-74
2022/04/12 04:25:10;;;;;;;;;;;20.70;99.90;;;;;;4882071;29;19919;-74
2022/04/12 04:27:36;;;;;;;;;;;20.70;99.90;;;;;;4881361;29;20324;-74
2022/04/12 04:30:04;;;;;;;;;;;20.70;99.90;;;;;;4881679;29;19958;-73
2022/04/12 04:32:31;;;;;;;;;;;20.80;99.90;;;;;;4882058;29;20390;-74
2022/04/12 04:34:58;;;;;;;;;;;20.90;99.90;;;;;;4881848;29;19919;-74
2022/04/12 04:37:25;;;;;;;;;;;21.00;99.90;;;;;;4881644;29;20036;-74
2022/04/12 04:39:52;;;;;;;;;;;21.00;99.90;;;;;;4881526;29;19964;-74
2022/04/12 04:42:20;;;;;;;;;;;21.10;99.90;;;;;;4881721;29;19919;-75
2022/04/12 04:44:47;;;;;;;;;;;21.00;99.90;;;;;;4881682;29;19912;-74
2022/04/12 04:47:14;;;;;;;;;;;20.90;99.90;;;;;;4881690;29;19967;-74
2022/04/12 04:49:41;;;;;;;;;;;20.90;99.90;;;;;;4881348;29;20019;-75
2022/04/12 04:52:07;;;;;;;;;;;21.00;99.90;;;;;;4881197;29;19916;-74
2022/04/12 04:54:34;;;;;;;;;;;21.00;99.90;;;;;;4881111;29;19912;-74
2022/04/12 04:57:01;;;;;;;;;;;21.00;99.90;;;;;;4881495;29;19923;-74
2022/04/12 04:59:28;;;;;;;;;;;20.90;99.90;;;;;;4881251;29;19972;-74
2022/04/12 05:01:54;;;;;;;;;;;20.80;99.90;;;;;;4880775;29;19911;-74
2022/04/12 05:04:21;;;;;;;;;;;20.70;99.90;;;;;;4881381;29;19991;-74
2022/04/12 05:06:48;;;;;;;;;;;20.60;99.90;;;;;;4881336;29;19918;-74
2022/04/12 05:09:14;;;;;;;;;;;20.50;99.90;;;;;;4881165;29;19912;-74
2022/04/12 05:11:41;;;;;;;;;;;20.50;99.90;;;;;;4881185;29;20336;-74
2022/04/12 05:14:07;;;;;;;;;;;20.40;99.90;;;;;;4881341;29;19919;-74
2022/04/12 05:16:34;;;;;;;;;;;20.40;99.90;;;;;;4881166;29;19918;-74
2022/04/12 05:19:01;;;;;;;;;;;20.40;99.90;;;;;;4881104;29;19919;-74
2022/04/12 05:21:27;;;;;;;;;;;20.40;99.90;;;;;;4881346;29;20585;-74
2022/04/12 05:23:54;;;;;;;;;;;20.30;99.90;;;;;;4880732;29;19912;-74
2022/04/12 05:26:21;;;;;;;;;;;20.30;99.90;;;;;;4881071;29;19923;-74
2022/04/12 05:28:47;;;;;;;;;;;20.20;99.90;;;;;;4881112;29;20061;-74
2022/04/12 05:31:14;;;;;;;;;;;20.20;99.90;;;;;;4881151;29;20378;-74
2022/04/12 05:33:41;;;;;;;;;;;20.20;99.90;;;;;;4880835;29;20133;-75
2022/04/12 05:36:07;;;;;;;;;;;20.20;99.90;;;;;;4880901;29;19912;-74
2022/04/12 05:38:35;;;;;;;;;;;20.20;99.90;;;;;;4880589;29;19922;-74
2022/04/12 05:41:02;;;;;;;;;;;20.20;99.90;;;;;;4880799;29;20027;-74
2022/04/12 05:43:28;;;;;;;;;;;20.20;99.90;;;;;;4880780;29;19968;-75
2022/04/12 05:45:55;;;;;;;;;;;20.20;99.90;;;;;;4880822;29;20371;-74
2022/04/12 05:48:22;;;;;;;;;;;20.20;99.90;;;;;;4880758;29;20031;-74
2022/04/12 05:50:49;;;;;;;;;;;20.20;99.90;;;;;;4880695;29;19967;-74
2022/04/12 05:53:15;;;;;;;;;;;20.10;99.90;;;;;;4880601;29;19912;-74
2022/04/12 05:55:42;;;;;;;;;;;20.10;99.90;;;;;;4880078;29;20352;-74
2022/04/12 05:58:09;;;;;;;;;;;20.10;99.90;;;;;;4880599;29;19963;-74
2022/04/12 06:00:35;;;;;;;;;;;20.20;99.90;;;;;;4880570;29;19911;-75
2022/04/12 06:03:02;;;;;;;;;;;20.00;99.90;;;;;;4880060;29;19953;-74
2022/04/12 06:05:31;;;;;;;;;;;20.00;99.90;;;;;;4880305;29;19943;-74
2022/04/12 06:07:59;;;;;;;;;;;20.00;99.90;;;;;;4880147;29;19966;-74
2022/04/12 06:10:26;;;;;;;;;;;19.90;99.90;;;;;;4880107;29;19912;-74
2022/04/12 06:12:53;;;;;;;;;;;19.90;99.90;;;;;;4880179;29;19919;-74
2022/04/12 06:15:20;;;;;;;;;;;19.90;99.90;;;;;;4880288;29;19939;-74
2022/04/12 06:17:47;;;;;;;;;;;19.90;99.90;;;;;;4879758;29;20324;-74
2022/04/12 06:20:17;;;;;;;;;;;19.80;99.90;;;;;;4880014;29;19916;-74
2022/04/12 06:22:44;;;;;;;;;;;19.80;99.90;;;;;;4879972;29;20303;-74
2022/04/12 06:25:12;;;;;;;;;;;19.80;99.90;;;;;;4879940;29;19940;-74
2022/04/12 06:27:40;;;;;;;;;;;19.80;99.90;;;;;;4879759;29;19995;-74
2022/04/12 06:30:12;;;;;;;;;;;19.80;99.90;;;;;;4879993;29;20056;-74
2022/04/12 06:32:39;;;;;;;;;;;19.80;99.90;;;;;;4879968;29;19911;-74
2022/04/12 06:35:06;;;;;;;;;;;19.80;99.90;;;;;;4879851;29;20020;-74
2022/04/12 06:37:33;;;;;;;;;;;19.80;99.90;;;;;;4879587;29;19912;-74
2022/04/12 06:40:00;;;;;;;;;;;19.80;99.90;;;;;;4879592;29;19916;-74
2022/04/12 06:42:27;;;;;;;;;;;19.80;99.90;;;;;;4879749;29;19911;-74
2022/04/12 06:44:54;;;;;;;;;;;19.80;99.90;;;;;;4879437;29;19968;-74
2022/04/12 06:47:21;;;;;;;;;;;19.80;99.90;;;;;;4879577;29;19963;-75
2022/04/12 06:49:49;;;;;;;;;;;19.70;99.90;;;;;;4879364;29;19911;-74
2022/04/12 06:52:16;;;;;;;;;;;19.80;99.90;;;;;;4876891;29;20514;-74
2022/04/12 06:54:43;;;;;;;;;;;19.80;99.90;;;;;;4877330;29;19976;-74
2022/04/12 06:57:09;;;;;;;;;;;19.70;99.90;;;;;;4877351;29;20007;-74
2022/04/12 06:59:36;;;;;;;;;;;19.70;99.90;;;;;;4877317;29;19920;-74
2022/04/12 07:02:03;;;;;;;;;;;19.70;99.90;;;;;;4877059;29;20382;-74
2022/04/12 07:04:30;;;;;;;;;;;19.60;99.90;;;;;;4877050;29;19924;-74
2022/04/12 07:06:57;;;;;;;;;;;19.70;99.90;;;;;;4877576;29;19918;-74
2022/04/12 07:09:27;;;;;;;;;;;19.60;99.90;;;;;;4877500;29;19919;-74
2022/04/12 07:11:54;;;;;;;;;;;19.60;99.90;;;;;;4877290;29;19968;-74
2022/04/12 07:14:21;;;;;;;;;;;19.60;99.90;;;;;;4877491;29;20375;-74
2022/04/12 07:16:48;;;;;;;;;;;19.60;99.90;;;;;;4877262;29;20374;-74
2022/04/12 07:19:15;;;;;;;;;;;19.60;99.90;;;;;;4876916;29;20295;-75
2022/04/12 07:21:41;;;;;;;;;;;19.60;99.90;;;;;;4877049;29;19951;-74
2022/04/12 07:24:08;;;;;;;;;;;19.60;99.90;;;;;;4877360;29;19918;-74
2022/04/12 07:26:36;;;;;;;;;;;19.50;99.90;;;;;;4877270;29;20007;-74
2022/04/12 07:29:03;;;;;;;;;;;19.60;99.90;;;;;;4877248;29;19912;-74
2022/04/12 07:31:30;;;;;;;;;;;19.60;99.90;;;;;;4876627;29;20352;-74
2022/04/12 07:33:57;;;;;;;;;;;19.60;99.90;;;;;;4877142;29;19911;-74
2022/04/12 07:36:24;;;;;;;;;;;19.60;99.90;;;;;;4877153;29;19912;-74
2022/04/12 07:38:50;;;;;;;;;;;19.60;99.90;;;;;;4876818;29;20372;-74
2022/04/12 07:41:17;;;;;;;;;;;19.60;99.90;;;;;;4877045;29;20251;-74
2022/04/12 07:43:48;;;;;;;;;;;19.60;99.90;;;;;;4876712;29;19956;-74
2022/04/12 07:46:15;;;;;;;;;;;19.60;99.90;;;;;;4876875;29;20015;-74
2022/04/12 07:48:42;;;;;;;;;;;19.60;99.90;;;;;;4876949;29;19922;-74
2022/04/12 07:51:09;;;;;;;;;;;19.50;99.90;;;;;;4876972;29;19912;-74
2022/04/12 07:53:36;;;;;;;;;;;19.50;99.90;;;;;;4876730;29;19918;-74
2022/04/12 07:56:03;;;;;;;;;;;19.50;99.90;;;;;;4877096;29;19971;-74
2022/04/12 07:58:29;;;;;;;;;;;19.50;99.90;;;;;;4876563;29;19916;-74
2022/04/12 08:00:56;;;;;;;;;;;19.40;99.90;;;;;;4877181;29;19916;-74
2022/04/12 08:03:23;;;;;;;;;;;19.40;99.90;;;;;;4877416;29;20348;-74
2022/04/12 08:05:49;;;;;;;;;;;19.50;99.90;;;;;;4880012;29;19912;-74
2022/04/12 08:08:16;;;;;;;;;;;19.40;99.90;;;;;;4880148;29;20245;-74
2022/04/12 08:10:43;;;;;;;;;;;19.40;99.90;;;;;;4880055;29;20458;-74
2022/04/12 08:13:10;;;;;;;;;;;19.40;99.90;;;;;;4880298;29;20339;-74
2022/04/12 08:15:39;;;;;;;;;;;19.40;99.90;;;;;;4879923;29;19912;-74
2022/04/12 08:18:06;;;;;;;;;;;19.40;99.90;;;;;;4879955;29;19975;-74
2022/04/12 08:20:33;;;;;;;;;;;19.40;99.90;;;;;;4880238;29;20002;-74
2022/04/12 08:23:01;;;;;;;;;;;19.40;99.90;;;;;;4862825;29;19947;-74
2022/04/12 08:25:28;;;;;;;;;;;19.40;99.90;;;;;;4879864;29;20342;-73
2022/04/12 08:27:55;;;;;;;;;;;19.40;99.90;;;;;;4879852;29;20015;-74
2022/04/12 08:30:22;;;;;;;;;;;19.40;99.90;;;;;;4879929;29;19923;-74
2022/04/12 08:32:49;;;;;;;;;;;19.50;99.90;;;;;;4879773;29;20363;-74
2022/04/12 08:35:15;;;;;;;;;;;19.40;99.90;;;;;;4879687;29;19950;-74
2022/04/12 08:37:43;;;;;;;;;;;19.40;99.90;;;;;;4879079;29;19919;-74
2022/04/12 08:40:11;;;;;;;;;;;19.40;99.90;;;;;;4879866;29;20434;-73
2022/04/12 08:42:38;;;;;;;;;;;19.40;99.90;;;;;;4875388;29;19912;-73
2022/04/12 08:45:07;;;;;;;;;;;19.40;99.90;;;;;;4879515;29;19912;-74
2022/04/12 08:47:35;;;;;;;;;;;19.40;99.90;;;;;;4879430;29;20376;-75
2022/04/12 08:50:02;;;;;;;;;;;19.40;99.90;;;;;;4879598;29;20375;-74
2022/04/12 08:52:29;;;;;;;;;;;19.40;99.90;;;;;;4879207;29;19927;-74
2022/04/12 08:54:55;;;;;;;;;;;19.40;99.90;;;;;;4878878;29;20002;-74
2022/04/12 08:57:22;;;;;;;;;;;19.40;99.90;;;;;;4878932;29;19916;-74
2022/04/12 08:59:49;;;;;;;;;;;19.40;99.90;;;;;;4879055;29;20010;-74
2022/04/12 09:02:15;;;;;;;;;;;19.40;99.90;;;;;;4879237;29;19920;-74
2022/04/12 09:04:42;;;;;;;;;;;19.40;99.90;;;;;;4879340;29;20034;-74
2022/04/12 09:07:12;;;;;;;;;;;19.40;99.90;;;;;;4880954;29;19912;-74
2022/04/12 09:09:39;;;;;;;;;;;19.40;99.90;;;;;;4881050;29;20026;-74
2022/04/12 09:12:09;;;;;;;;;;;19.40;99.90;;;;;;4880830;29;19918;-74
2022/04/12 09:14:39;;;;;;;;;;;19.40;99.90;;;;;;4880683;29;19967;-75
2022/04/12 09:17:07;;;;;;;;;;;19.40;99.90;;;;;;4881113;29;19951;-74
2022/04/12 09:19:45;;;;;;;;;;;19.40;99.90;;;;;;4880580;29;20006;-74
2022/04/12 09:22:14;;;;;;;;;;;19.40;99.90;;;;;;4880846;29;19919;-74
2022/04/12 09:24:44;;;;;;;;;;;19.40;99.90;;;;;;4880952;29;20022;-74
2022/04/12 09:27:35;;;;;;;;;;;19.40;99.90;;;;;;4880179;29;19912;-74
2022/04/12 09:30:32;;;;;;;;;;;19.40;99.90;;;;;;4880859;29;19915;-75
2022/04/12 09:32:59;;;;;;;;;;;19.40;99.90;;;;;;4880782;29;19918;-74
2022/04/12 09:35:38;;;;;;;;;;;19.30;99.90;;;;;;4880689;29;19948;-74
2022/04/12 09:38:30;;;;;;;;;;;19.40;99.90;;;;;;4880317;29;19916;-74
2022/04/12 09:41:10;;;;;;;;;;;19.30;99.90;;;;;;4880065;29;19970;-75
2022/04/12 09:43:56;;;;;;;;;;;19.40;99.90;;;;;;4876905;29;19912;-74
2022/04/12 09:46:27;;;;;;;;;;;19.40;99.90;;;;;;4880186;29;19915;-74
2022/04/12 09:48:53;;;;;;;;;;;19.40;99.90;;;;;;4880302;29;19999;-74
2022/04/12 09:54:55;;;;;;;;;;;;;;;;;;;;;
2022/04/12 09:57:22;;;;;;;;;;;19.40;99.90;;;;;;4875883;29;19916;-74
2022/04/12 09:59:49;;;;;;;;;;;19.40;99.90;;;;;;4880316;29;19920;-74
2022/04/12 10:02:16;;;;;;;;;;;19.40;99.90;;;;;;4880345;29;20376;-74
2022/04/12 10:04:45;;;;;;;;;;;19.40;99.90;;;;;;4880182;29;19944;-74
2022/04/12 10:07:12;;;;;;;;;;;19.40;99.90;;;;;;4880129;29;19920;-74
2022/04/12 10:09:40;;;;;;;;;;;19.40;99.90;;;;;;4880014;29;19919;-74
2022/04/12 10:12:07;;;;;;;;;;;19.40;99.90;;;;;;4880150;29;19922;-74
2022/04/12 10:14:33;;;;;;;;;;;19.40;99.90;;;;;;4880267;29;20359;-74
2022/04/12 10:17:01;;;;;;;;;;;19.50;99.90;;;;;;4880003;29;19922;-74
2022/04/12 10:19:29;;;;;;;;;;;19.50;99.90;;;;;;4879940;29;20007;-74
2022/04/12 10:21:56;;;;;;;;;;;19.50;99.90;;;;;;4880015;29;19911;-74
2022/04/12 10:24:23;;;;;;;;;;;19.40;99.90;;;;;;4880135;29;19912;-74
2022/04/12 10:26:57;;;;;;;;;;;19.30;99.90;;;;;;4879270;29;19994;-74
2022/04/12 10:29:33;;;;;;;;;;;19.20;99.90;;;;;;4877947;29;19954;-74
2022/04/12 10:32:01;;;;;;;;;;;19.10;99.90;;;;;;4879951;29;20332;-74
2022/04/12 10:34:27;;;;;;;;;;;19.00;99.90;;;;;;4879924;29;20257;-74
2022/04/12 10:37:04;;;;;;;;;;;19.00;99.90;;;;;;4879568;29;19912;-75
2022/04/12 10:39:50;;;;;;;;;;;19.00;99.90;;;;;;4879620;29;19927;-75
2022/04/12 10:42:50;;;;;;;;;;;;;;;;;;;;;
2022/04/12 10:45:30;;;;;;;;;;;19.00;99.90;;;;;;4875353;29;19912;-74
2022/04/12 10:47:57;;;;;;;;;;;19.00;99.90;;;;;;4879806;29;19912;-74
2022/04/12 10:50:25;;;;;;;;;;;19.00;99.90;;;;;;4879710;29;19960;-74
2022/04/12 10:52:51;;;;;;;;;;;19.00;99.90;;;;;;4879388;29;19978;-74
2022/04/12 10:55:19;;;;;;;;;;;19.00;99.90;;;;;;4879653;29;19945;-74
2022/04/12 10:57:46;;;;;;;;;;;19.10;99.90;;;;;;4875342;29;19913;-74
2022/04/12 11:00:14;;;;;;;;;;;19.10;99.90;;;;;;4880185;29;19971;-74
2022/04/12 11:02:44;;;;;;;;;;;19.10;99.90;;;;;;4894326;29;19924;-74
2022/04/12 11:05:30;;;;;;;;;;;19.20;99.90;;;;;;4881188;29;20398;-75
2022/04/12 11:07:57;;;;;;;;;;;19.20;99.90;;;;;;4876667;29;19911;-74
2022/04/12 11:10:24;;;;;;;;;;;19.20;99.90;;;;;;4895800;29;20026;-74
2022/04/12 11:13:10;;;;;;;;;;;19.20;99.90;;;;;;4896153;29;20306;-74
2022/04/12 11:15:42;;;;;;;;;;;19.20;99.90;;;;;;4895903;29;19971;-74
2022/04/12 11:18:09;;;;;;;;;;;19.20;99.90;;;;;;4895462;29;19963;-74
2022/04/12 11:20:36;;;;;;;;;;;19.20;99.90;;;;;;4895935;29;20417;-75
2022/04/12 11:23:07;;;;;;;;;;;19.30;99.90;;;;;;4895376;29;19912;-74
2022/04/12 11:25:34;;;;;;;;;;;19.30;99.90;;;;;;4895627;29;19919;-75
2022/04/12 11:28:01;;;;;;;;;;;19.30;99.90;;;;;;4895817;29;19918;-75
2022/04/12 11:30:28;;;;;;;;;;;19.30;99.90;;;;;;4895991;29;20006;-74
2022/04/12 11:32:55;;;;;;;;;;;19.30;99.90;;;;;;4895251;29;19912;-75
2022/04/12 11:35:25;;;;;;;;;;;19.20;99.90;;;;;;4893181;29;20375;-75
2022/04/12 11:37:55;;;;;;;;;;;19.20;99.90;;;;;;4887708;29;19923;-74
2022/04/12 11:40:25;;;;;;;;;;;19.20;99.90;;;;;;4887436;29;19916;-74
2022/04/12 11:42:54;;;;;;;;;;;19.20;99.90;;;;;;4890938;29;19931;-75
2022/04/12 11:45:30;;;;;;;;;;;19.20;99.90;;;;;;4889520;29;20101;-74
2022/04/12 11:47:57;;;;;;;;;;;19.10;99.90;;;;;;4861629;29;19999;-75
2022/04/12 11:50:24;;;;;;;;;;;19.20;99.90;;;;;;4862101;29;20342;-74
2022/04/12 11:52:51;;;;;;;;;;;19.10;99.90;;;;;;4890239;29;20311;-75
2022/04/12 11:55:17;;;;;;;;;;;19.00;99.90;;;;;;4889222;29;19912;-74
2022/04/12 11:57:44;;;;;;;;;;;19.00;99.90;;;;;;4888837;29;19998;-75
2022/04/12 12:00:11;;;;;;;;;;;19.00;99.90;;;;;;4880520;29;19920;-74
2022/04/12 12:02:39;;;;;;;;;;;18.90;99.90;;;;;;4879759;29;19932;-75
2022/04/12 12:05:06;;;;;;;;;;;18.80;99.90;;;;;;4880721;29;20287;-74
2022/04/12 12:07:36;;;;;;;;;;;18.80;99.90;;;;;;4880124;29;20419;-74
2022/04/12 12:10:08;;;;;;;;;;;18.70;99.90;;;;;;4880364;29;19946;-74
2022/04/12 12:12:39;;;;;;;;;;;18.60;99.90;;;;;;4880357;29;19916;-75
2022/04/12 12:15:35;;;;;;;;;;;18.60;99.90;;;;;;4880043;29;20004;-75
2022/04/12 12:18:06;;;;;;;;;;;18.50;99.90;;;;;;4871522;29;19971;-75
2022/04/12 12:20:35;;;;;;;;;;;18.50;99.90;;;;;;4898865;29;20351;-74
2022/04/12 12:23:08;;;;;;;;;;;18.50;99.90;;;;;;4898346;29;20402;-74
2022/04/12 12:25:42;;;;;;;;;;;18.40;99.90;;;;;;4898666;29;20021;-74
2022/04/12 12:28:19;;;;;;;;;;;18.50;99.90;;;;;;4898556;29;19912;-74
2022/04/12 12:30:46;;;;;;;;;;;18.40;99.90;;;;;;4898886;29;20016;-74
2022/04/12 12:33:14;;;;;;;;;;;18.40;99.90;;;;;;4898210;29;19959;-74
2022/04/12 12:35:45;;;;;;;;;;;18.40;99.90;;;;;;4898473;29;20355;-74
2022/04/12 12:38:12;;;;;;;;;;;18.40;99.90;;;;;;4898409;29;20303;-74
2022/04/12 12:40:40;;;;;;;;;;;18.50;99.90;;;;;;4881100;29;19922;-74
2022/04/12 12:43:07;;;;;;;;;;;18.40;99.90;;;;;;4898565;29;19911;-74
2022/04/12 12:45:37;;;;;;;;;;;18.40;99.90;;;;;;4897564;29;20324;-74
2022/04/12 12:48:07;;;;;;;;;;;18.40;99.90;;;;;;4898432;29;20379;-74
2022/04/12 12:50:36;;;;;;;;;;;18.40;99.90;;;;;;4897544;29;19942;-74
2022/04/12 12:53:03;;;;;;;;;;;18.40;99.90;;;;;;4893093;29;19944;-74
2022/04/12 12:55:32;;;;;;;;;;;18.40;99.90;;;;;;4889714;29;19921;-74
2022/04/12 12:58:06;;;;;;;;;;;18.40;99.90;;;;;;4898291;29;19911;-74
2022/04/12 13:00:34;;;;;;;;;;;18.40;99.90;;;;;;4898239;29;19919;-74
2022/04/12 13:03:02;;;;;;;;;;;18.40;99.90;;;;;;4898145;29;19932;-74
2022/04/12 13:05:29;;;;;;;;;;;18.40;99.90;;;;;;4898077;29;19918;-74
2022/04/12 13:07:57;;;;;;;;;;;18.30;99.90;;;;;;4897705;29;19911;-74
2022/04/12 13:10:24;;;;;;;;;;;18.40;99.90;;;;;;4897870;29;19921;-74
2022/04/12 13:12:51;;;;;;;;;;;18.30;99.90;;;;;;4898011;29;20663;-74
2022/04/12 13:15:18;;;;;;;;;;;18.30;99.90;;;;;;4897741;29;19950;-74
2022/04/12 13:17:44;;;;;;;;;;;18.20;99.90;;;;;;4897624;29;20363;-75
2022/04/12 13:20:13;;;;;;;;;;;18.20;99.90;;;;;;4897437;29;20444;-75
2022/04/12 13:22:40;;;;;;;;;;;18.20;99.90;;;;;;4897595;29;19916;-74
2022/04/12 13:25:07;;;;;;;;;;;18.10;99.90;;;;;;4897729;29;20351;-74
2022/04/12 13:27:36;;;;;;;;;;;18.10;99.90;;;;;;4897249;29;19915;-74
2022/04/12 13:30:05;;;;;;;;;;;18.10;99.90;;;;;;4897447;29;19958;-74
2022/04/12 13:32:31;;;;;;;;;;;18.00;99.90;;;;;;4897423;29;19916;-73
2022/04/12 13:34:59;;;;;;;;;;;18.00;99.90;;;;;;4897398;29;19926;-74
2022/04/12 13:37:25;;;;;;;;;;;18.00;99.90;;;;;;4897477;29;19912;-74
2022/04/12 13:39:52;;;;;;;;;;;18.00;99.90;;;;;;4897123;29;19931;-74
2022/04/12 13:42:19;;;;;;;;;;;18.00;99.90;;;;;;4897449;29;19924;-74
2022/04/12 13:44:49;;;;;;;;;;;18.00;99.90;;;;;;4897211;29;19916;-74
2022/04/12 13:47:17;;;;;;;;;;;18.00;99.90;;;;;;4897140;29;19915;-74
2022/04/12 13:49:44;;;;;;;;;;;18.00;99.90;;;;;;4897087;29;19912;-74
2022/04/12 13:52:11;;;;;;;;;;;18.00;99.90;;;;;;4897224;29;20046;-74
2022/04/12 13:54:37;;;;;;;;;;;18.00;99.90;;;;;;4880557;29;19915;-74
2022/04/12 13:57:04;;;;;;;;;;;18.10;99.90;;;;;;4897156;29;19966;-74
2022/04/12 13:59:31;;;;;;;;;;;18.10;99.90;;;;;;4896752;29;19931;-74
2022/04/12 14:01:57;;;;;;;;;;;18.10;99.90;;;;;;4897026;29;19923;-74
2022/04/12 14:04:24;;;;;;;;;;;18.00;99.90;;;;;;4897293;29;19925;-74
2022/04/12 14:06:51;;;;;;;;;;;18.00;99.90;;;;;;4897093;29;20356;-74
2022/04/12 14:09:18;;;;;;;;;;;18.10;99.90;;;;;;4897163;29;19978;-74
2022/04/12 14:11:47;;;;;;;;;;;18.00;99.90;;;;;;4896669;29;20002;-73
2022/04/12 14:14:14;;;;;;;;;;;18.00;99.90;;;;;;4896725;29;20146;-74
2022/04/12 14:16:42;;;;;;;;;;;18.00;99.90;;;;;;4897022;29;19915;-74
2022/04/12 14:19:10;;;;;;;;;;;18.00;99.90;;;;;;4896858;29;20014;-74
2022/04/12 14:21:37;;;;;;;;;;;18.00;99.90;;;;;;4896812;29;20623;-74
2022/04/12 14:24:03;;;;;;;;;;;17.90;99.90;;;;;;4896562;29;20367;-74
2022/04/12 14:26:30;;;;;;;;;;;17.90;99.90;;;;;;4896482;29;19950;-74
2022/04/12 14:28:57;;;;;;;;;;;17.90;99.90;;;;;;4896905;29;19915;-74
2022/04/12 14:31:23;;;;;;;;;;;17.90;99.90;;;;;;4896550;29;19919;-74